Time;durP1;ratioP1;P1;durP2;ratioP2;P2;SDS_P1;SDS_P2;PMS_P1;PMS_P2;Temp;Humidity;BMP_temperature;BMP_pressure;BME280_temperature;BME280_humidity;BME280_pressure;Samples;Min_cycle;Max_cycle;Signal;HPM_P1;HPM_P2
2022/10/12 00:01:20;;;;;;;3.70;1.60;;;16.90;83.30;;;;;;5043569;28;20652;-74
2022/10/12 00:03:46;;;;;;;2.88;1.30;;;16.90;82.70;;;;;;5044647;28;20123;-75
2022/10/12 00:06:16;;;;;;;3.63;1.63;;;16.90;82.70;;;;;;5045280;28;20048;-74
2022/10/12 00:08:42;;;;;;;3.70;1.60;;;16.90;82.70;;;;;;5045250;28;20024;-75
2022/10/12 00:11:11;;;;;;;3.63;1.45;;;16.90;82.80;;;;;;5043017;28;20382;-75
2022/10/12 00:13:37;;;;;;;3.65;1.55;;;16.90;82.70;;;;;;5044850;28;20082;-76
2022/10/12 00:16:04;;;;;;;4.72;1.65;;;16.90;82.80;;;;;;5045128;28;20029;-75
2022/10/12 00:18:30;;;;;;;3.22;1.40;;;16.90;82.90;;;;;;5043464;28;20535;-75
2022/10/12 00:21:04;;;;;;;4.05;1.48;;;16.90;82.90;;;;;;5044540;28;20054;-75
2022/10/12 00:23:30;;;;;;;3.50;1.50;;;16.90;82.90;;;;;;5044701;28;20128;-75
2022/10/12 00:26:03;;;;;;;3.63;1.60;;;16.90;82.90;;;;;;5044909;28;20429;-75
2022/10/12 00:28:29;;;;;;;3.10;1.40;;;16.80;82.90;;;;;;5043546;28;20039;-75
2022/10/12 00:30:54;;;;;;;3.97;1.70;;;16.90;82.90;;;;;;5044350;28;20056;-75
2022/10/12 00:33:20;;;;;;;3.15;1.60;;;16.80;82.90;;;;;;5048959;28;20052;-74
2022/10/12 00:35:45;;;;;;;3.20;1.60;;;16.80;82.90;;;;;;5047437;28;20800;-75
2022/10/12 00:38:11;;;;;;;3.15;1.48;;;16.90;83.00;;;;;;5048980;28;20029;-75
2022/10/12 00:40:37;;;;;;;3.42;1.60;;;16.80;82.90;;;;;;5048522;28;20132;-75
2022/10/12 00:43:02;;;;;;;3.65;1.70;;;16.80;82.90;;;;;;5047654;28;20031;-75
2022/10/12 00:45:28;;;;;;;2.88;1.40;;;16.80;83.00;;;;;;5048770;28;20033;-75
2022/10/12 00:47:58;;;;;;;2.80;1.40;;;16.80;82.90;;;;;;5048889;28;20052;-75
2022/10/12 00:50:29;;;;;;;3.53;1.55;;;16.80;82.90;;;;;;5047079;28;20017;-77
2022/10/12 00:53:21;;;;;;;3.27;1.50;;;16.80;82.90;;;;;;5047464;28;20043;-75
2022/10/12 00:55:50;;;;;;;3.45;1.60;;;16.80;82.80;;;;;;5047969;28;20037;-76
2022/10/12 00:58:16;;;;;;;3.55;1.52;;;16.90;83.30;;;;;;5047222;28;20032;-75
2022/10/12 01:00:42;;;;;;;4.00;1.58;;;16.90;82.90;;;;;;5048207;28;20850;-77
2022/10/12 01:03:12;;;;;;;3.05;1.60;;;16.90;82.80;;;;;;5046825;28;20025;-75
2022/10/12 01:05:41;;;;;;;2.78;1.40;;;16.90;82.70;;;;;;5046893;28;20079;-75
2022/10/12 01:08:06;;;;;;;2.70;1.30;;;16.90;82.70;;;;;;5048142;28;20040;-75
2022/10/12 01:10:32;;;;;;;3.38;1.52;;;16.90;82.70;;;;;;5047707;28;20746;-75
2022/10/12 01:12:59;;;;;;;3.83;1.50;;;16.80;82.60;;;;;;5048271;28;20017;-75
2022/10/12 01:15:40;;;;;;;3.17;1.42;;;16.90;82.70;;;;;;5047043;28;20742;-75
2022/10/12 01:18:17;;;;;;;3.80;1.77;;;16.80;82.70;;;;;;5048283;28;20032;-75
2022/10/12 01:20:59;;;;;;;3.28;1.50;;;16.80;82.90;;;;;;5046310;28;20033;-75
2022/10/12 01:24:03;;;;;;;4.38;1.98;;;16.80;82.80;;;;;;5046527;28;20029;-75
2022/10/12 01:26:41;;;;;;;2.28;1.10;;;16.80;82.80;;;;;;5047798;28;20029;-75
2022/10/12 01:29:34;;;;;;;3.45;1.65;;;16.80;82.90;;;;;;5047956;28;20032;-74
2022/10/12 01:32:19;;;;;;;3.85;1.60;;;16.80;82.90;;;;;;5046262;28;20036;-75
2022/10/12 01:35:04;;;;;;;4.43;1.83;;;16.80;82.90;;;;;;5046392;28;20098;-75
2022/10/12 01:37:41;;;;;;;3.03;1.40;;;16.80;82.90;;;;;;5046485;28;20025;-75
2022/10/12 01:40:13;;;;;;;3.65;1.77;;;16.80;82.90;;;;;;5046712;28;20453;-74
2022/10/12 01:42:42;;;;;;;4.40;1.90;;;16.80;82.90;;;;;;5046604;28;20057;-75
2022/10/12 01:45:14;;;;;;;3.78;1.83;;;16.80;82.90;;;;;;5047355;28;20102;-75
2022/10/12 01:47:42;;;;;;;3.20;1.50;;;16.80;82.90;;;;;;5046267;28;20061;-75
2022/10/12 01:50:10;;;;;;;3.78;1.70;;;16.80;82.90;;;;;;5046426;28;20132;-74
2022/10/12 01:52:53;;;;;;;3.60;1.75;;;16.70;82.80;;;;;;5045519;28;20056;-77
2022/10/12 01:55:28;;;;;;;3.83;1.52;;;16.70;82.80;;;;;;5047537;28;20078;-74
2022/10/12 01:58:02;;;;;;;3.25;1.50;;;16.80;82.80;;;;;;5047207;28;20057;-75
2022/10/12 02:00:32;;;;;;;3.83;1.80;;;16.80;82.60;;;;;;5045796;28;20037;-75
2022/10/12 02:03:04;;;;;;;4.13;1.70;;;16.80;82.80;;;;;;5047501;28;20021;-75
2022/10/12 02:05:39;;;;;;;3.92;1.60;;;16.80;82.80;;;;;;5046928;28;20538;-75
2022/10/12 02:08:23;;;;;;;3.58;1.60;;;16.80;82.70;;;;;;5047274;28;20021;-74
2022/10/12 02:11:06;;;;;;;2.42;1.35;;;16.80;82.60;;;;;;5046750;28;20041;-75
2022/10/12 02:13:36;;;;;;;3.58;1.63;;;16.80;82.70;;;;;;5047006;28;20044;-75
2022/10/12 02:16:06;;;;;;;2.72;1.40;;;16.80;82.70;;;;;;5046995;28;20111;-75
2022/10/12 02:18:33;;;;;;;3.42;1.77;;;16.80;82.70;;;;;;5045531;28;20032;-74
2022/10/12 02:20:59;;;;;;;3.78;1.90;;;16.80;82.80;;;;;;5045373;28;20028;-74
2022/10/12 02:23:27;;;;;;;3.47;1.70;;;16.80;82.90;;;;;;5045637;28;20394;-74
2022/10/12 02:25:53;;;;;;;5.20;1.98;;;16.80;82.90;;;;;;5045406;28;20025;-75
2022/10/12 02:28:22;;;;;;;3.55;1.67;;;16.70;82.80;;;;;;5047021;28;20136;-75
2022/10/12 02:31:19;;;;;;;3.00;1.65;;;16.70;82.80;;;;;;5046319;28;20056;-75
2022/10/12 02:33:53;;;;;;;3.25;1.80;;;16.70;82.80;;;;;;5038620;28;20047;-74
2022/10/12 02:36:29;;;;;;;4.38;1.67;;;16.70;82.90;;;;;;5046862;28;20024;-75
2022/10/12 02:39:09;;;;;;;3.92;1.80;;;16.70;82.90;;;;;;5045369;28;20029;-74
2022/10/12 02:41:40;;;;;;;2.38;1.42;;;16.70;82.80;;;;;;5046090;28;20025;-74
2022/10/12 02:44:10;;;;;;;3.47;1.60;;;16.70;82.80;;;;;;5046407;28;20036;-75
2022/10/12 02:46:38;;;;;;;3.78;1.60;;;16.70;82.90;;;;;;5039725;28;20032;-75
2022/10/12 02:49:05;;;;;;;3.33;1.70;;;16.70;82.90;;;;;;5039538;28;20025;-74
2022/10/12 02:51:32;;;;;;;3.10;1.85;;;16.70;82.90;;;;;;5045735;28;20033;-75
2022/10/12 02:53:59;;;;;;;4.03;1.80;;;16.70;82.90;;;;;;5046184;28;20079;-74
2022/10/12 02:56:24;;;;;;;3.00;1.83;;;16.70;82.70;;;;;;5046318;28;20037;-74
2022/10/12 02:58:50;;;;;;;3.67;1.88;;;16.70;82.70;;;;;;5046308;28;20028;-74
2022/10/12 03:01:16;;;;;;;3.72;1.80;;;16.70;82.70;;;;;;5045601;28;20025;-75
2022/10/12 03:03:42;;;;;;;2.83;1.50;;;16.70;82.60;;;;;;5045975;28;20059;-75
2022/10/12 03:06:08;;;;;;;4.20;1.90;;;16.80;82.70;;;;;;5044795;28;20017;-75
2022/10/12 03:08:34;;;;;;;2.78;1.60;;;16.80;82.70;;;;;;5046117;28;20050;-77
2022/10/12 03:11:10;;;;;;;2.88;1.70;;;16.60;82.50;;;;;;5044398;28;20027;-75
2022/10/12 03:13:36;;;;;;;3.97;1.85;;;16.80;82.60;;;;;;5046001;28;20029;-75
2022/10/12 03:16:04;;;;;;;3.42;1.70;;;16.80;82.60;;;;;;5044640;28;20668;-76
2022/10/12 03:18:30;;;;;;;3.25;1.80;;;16.80;82.70;;;;;;5045543;28;20033;-76
2022/10/12 03:20:55;;;;;;;2.42;1.40;;;16.70;82.70;;;;;;5044250;28;20029;-75
2022/10/12 03:23:21;;;;;;;3.47;1.80;;;16.70;82.70;;;;;;5044246;28;20031;-76
2022/10/12 03:25:46;;;;;;;3.30;1.83;;;16.70;82.70;;;;;;5044589;28;20021;-77
2022/10/12 03:28:12;;;;;;;3.72;1.73;;;16.70;82.80;;;;;;5045794;28;20036;-75
2022/10/12 03:30:37;;;;;;;4.30;1.90;;;16.70;82.80;;;;;;5045229;28;20314;-75
2022/10/12 03:33:03;;;;;;;3.08;1.63;;;16.70;82.80;;;;;;5045705;28;20025;-74
2022/10/12 03:35:28;;;;;;;4.03;1.70;;;16.70;82.70;;;;;;5044073;28;20064;-75
2022/10/12 03:37:54;;;;;;;3.75;1.80;;;16.80;82.90;;;;;;5044514;28;20471;-75
2022/10/12 03:40:19;;;;;;;3.78;1.80;;;16.70;82.90;;;;;;5044944;28;20037;-75
2022/10/12 03:42:45;;;;;;;3.40;1.88;;;16.70;82.80;;;;;;5048388;28;20032;-75
2022/10/12 03:45:11;;;;;;;3.63;1.58;;;16.70;82.90;;;;;;5064223;28;20337;-75
2022/10/12 03:47:36;;;;;;;2.85;1.55;;;16.70;82.90;;;;;;5065696;28;20535;-75
2022/10/12 03:50:03;;;;;;;4.57;1.85;;;16.60;82.80;;;;;;5065303;28;20082;-76
2022/10/12 03:52:28;;;;;;;4.20;2.00;;;16.70;83.00;;;;;;5065039;28;20036;-74
2022/10/12 03:54:54;;;;;;;3.40;1.83;;;16.60;82.90;;;;;;5065224;28;20040;-75
2022/10/12 03:57:19;;;;;;;3.63;1.80;;;16.60;82.90;;;;;;5065173;28;20032;-75
2022/10/12 03:59:45;;;;;;;3.38;1.70;;;16.60;82.80;;;;;;5065924;28;20036;-78
2022/10/12 04:02:11;;;;;;;3.88;1.80;;;16.70;82.70;;;;;;5069407;28;20044;-77
2022/10/12 04:04:36;;;;;;;2.58;1.58;;;16.70;82.70;;;;;;5058554;28;20439;-76
2022/10/12 04:07:02;;;;;;;3.45;1.88;;;16.70;82.60;;;;;;5043208;28;20410;-76
2022/10/12 04:09:27;;;;;;;3.25;1.73;;;16.70;82.60;;;;;;5043512;28;20021;-75
2022/10/12 04:11:53;;;;;;;4.07;1.73;;;16.70;82.60;;;;;;5043841;28;20334;-76
2022/10/12 04:14:18;;;;;;;3.25;1.98;;;16.70;82.60;;;;;;5043723;28;20514;-78
2022/10/12 04:16:44;;;;;;;3.05;1.60;;;16.70;82.60;;;;;;5044943;28;20039;-78
2022/10/12 04:19:12;;;;;;;3.78;1.80;;;16.70;82.60;;;;;;5042514;28;21609;-78
2022/10/12 04:21:38;;;;;;;2.85;1.55;;;16.70;82.60;;;;;;5043255;28;20090;-77
2022/10/12 04:24:03;;;;;;;3.50;1.70;;;16.70;82.70;;;;;;5043855;28;20025;-78
2022/10/12 04:26:29;;;;;;;3.47;1.80;;;16.70;82.70;;;;;;5045549;28;20112;-76
2022/10/12 04:28:54;;;;;;;3.72;1.90;;;16.70;82.70;;;;;;5044964;28;20059;-77
2022/10/12 04:31:20;;;;;;;3.78;1.75;;;16.60;82.70;;;;;;5043751;28;20513;-76
2022/10/12 04:33:45;;;;;;;3.60;2.03;;;16.60;82.70;;;;;;5044356;28;20029;-77
2022/10/12 04:36:11;;;;;;;4.07;2.00;;;16.70;82.80;;;;;;5044103;28;20155;-78
2022/10/12 04:38:37;;;;;;;4.18;1.90;;;16.60;82.80;;;;;;5044002;28;20029;-76
2022/10/12 04:41:02;;;;;;;3.08;1.67;;;16.60;82.70;;;;;;5044260;28;20383;-76
2022/10/12 04:43:28;;;;;;;5.20;1.98;;;16.60;82.40;;;;;;5043874;28;20036;-74
2022/10/12 04:45:58;;;;;;;6.70;1.83;;;16.60;82.30;;;;;;5041293;28;20487;-75
2022/10/12 04:48:25;;;;;;;5.43;1.90;;;16.60;82.40;;;;;;5042497;28;20078;-77
2022/10/12 04:50:51;;;;;;;4.50;1.88;;;16.60;82.60;;;;;;5045097;28;20021;-75
2022/10/12 04:53:17;;;;;;;3.83;1.80;;;16.60;82.60;;;;;;5045732;28;20029;-74
2022/10/12 04:55:43;;;;;;;4.88;1.80;;;16.60;82.50;;;;;;5042508;28;20628;-78
2022/10/12 04:58:08;;;;;;;4.93;1.90;;;16.70;82.60;;;;;;5039632;28;20034;-77
2022/10/12 05:00:34;;;;;;;5.55;2.15;;;16.60;82.50;;;;;;5037885;28;20644;-75
2022/10/12 05:02:59;;;;;;;4.72;2.20;;;16.60;82.30;;;;;;5043327;28;20028;-77
2022/10/12 05:05:25;;;;;;;6.18;2.22;;;16.60;82.30;;;;;;5044376;28;20039;-76
2022/10/12 05:07:51;;;;;;;5.05;2.30;;;16.60;82.20;;;;;;5043858;28;20025;-77
2022/10/12 05:10:16;;;;;;;4.18;1.92;;;16.60;82.20;;;;;;5043012;28;20044;-77
2022/10/12 05:12:42;;;;;;;4.72;2.10;;;16.60;82.00;;;;;;5045746;28;20033;-76
2022/10/12 05:15:09;;;;;;;6.78;2.40;;;16.60;82.00;;;;;;5045291;28;20033;-76
2022/10/12 05:17:34;;;;;;;5.53;1.95;;;16.70;81.80;;;;;;5046673;28;20043;-75
2022/10/12 05:20:00;;;;;;;6.03;2.28;;;16.70;81.80;;;;;;5048789;28;20128;-77
2022/10/12 05:22:25;;;;;;;6.35;2.30;;;16.60;81.70;;;;;;5048319;28;20431;-75
2022/10/12 05:24:51;;;;;;;4.65;2.10;;;16.70;81.80;;;;;;5048330;28;20024;-75
2022/10/12 05:27:16;;;;;;;6.78;2.20;;;16.60;81.80;;;;;;5048692;28;20542;-77
2022/10/12 05:29:42;;;;;;;8.20;2.00;;;16.60;81.80;;;;;;5048554;28;20032;-76
2022/10/12 05:32:07;;;;;;;4.93;2.40;;;16.60;81.90;;;;;;5046875;28;20013;-76
2022/10/12 05:34:33;;;;;;;4.93;2.50;;;16.60;81.90;;;;;;5048342;28;20392;-76
2022/10/12 05:36:58;;;;;;;5.68;2.42;;;16.60;82.00;;;;;;5048149;28;20048;-76
2022/10/12 05:39:24;;;;;;;6.15;2.30;;;16.60;82.00;;;;;;5048362;28;20056;-76
2022/10/12 05:41:50;;;;;;;5.97;2.38;;;16.50;82.00;;;;;;5047575;28;20060;-76
2022/10/12 05:44:15;;;;;;;6.68;2.38;;;16.60;82.10;;;;;;5048170;28;20025;-76
2022/10/12 05:46:41;;;;;;;6.40;2.50;;;16.60;82.20;;;;;;5046588;28;20065;-75
2022/10/12 05:49:07;;;;;;;5.57;2.20;;;16.60;82.10;;;;;;5047113;28;20024;-75
2022/10/12 05:51:32;;;;;;;5.22;2.40;;;16.60;82.00;;;;;;5047549;28;20506;-75
2022/10/12 05:53:58;;;;;;;5.05;2.30;;;16.60;82.00;;;;;;5046839;28;20123;-76
2022/10/12 05:56:24;;;;;;;5.75;2.30;;;16.60;82.10;;;;;;5046328;28;20035;-76
2022/10/12 05:58:49;;;;;;;4.30;2.33;;;16.60;82.10;;;;;;5048336;28;20024;-76
2022/10/12 06:01:15;;;;;;;4.03;2.22;;;16.60;82.00;;;;;;5046550;28;20029;-75
2022/10/12 06:03:41;;;;;;;4.68;2.10;;;16.60;82.20;;;;;;5047501;28;20090;-75
2022/10/12 06:06:06;;;;;;;5.57;2.20;;;16.60;81.90;;;;;;5047800;28;20028;-76
2022/10/12 06:08:33;;;;;;;5.22;2.38;;;16.60;81.80;;;;;;5047546;28;20104;-76
2022/10/12 06:10:59;;;;;;;4.60;2.10;;;16.60;81.90;;;;;;5046718;28;20025;-79
2022/10/12 06:13:24;;;;;;;4.50;2.22;;;16.60;81.80;;;;;;5047648;28;20037;-75
2022/10/12 06:15:50;;;;;;;6.00;2.10;;;16.60;81.70;;;;;;5047524;28;20025;-76
2022/10/12 06:18:16;;;;;;;4.63;1.85;;;16.60;81.70;;;;;;5046144;28;20044;-78
2022/10/12 06:20:51;;;;;;;4.25;2.33;;;16.70;81.60;;;;;;5047196;28;20033;-76
2022/10/12 06:23:20;;;;;;;4.88;2.28;;;16.70;81.50;;;;;;5047360;28;20088;-75
2022/10/12 06:25:47;;;;;;;4.75;2.22;;;16.70;81.40;;;;;;5045828;28;20033;-77
2022/10/12 06:28:14;;;;;;;5.72;1.95;;;16.70;81.40;;;;;;5047510;28;20025;-76
2022/10/12 06:30:40;;;;;;;4.50;2.40;;;16.80;81.40;;;;;;5046514;28;20028;-78
2022/10/12 06:33:06;;;;;;;5.50;2.13;;;16.80;81.40;;;;;;5047213;28;20032;-75
2022/10/12 06:35:32;;;;;;;5.40;2.10;;;16.80;81.30;;;;;;5047113;28;20036;-76
2022/10/12 06:37:57;;;;;;;5.55;2.08;;;16.80;81.30;;;;;;5045948;28;20035;-77
2022/10/12 06:40:23;;;;;;;3.85;2.15;;;16.80;81.30;;;;;;5046656;28;20212;-75
2022/10/12 06:42:49;;;;;;;4.25;2.10;;;16.80;81.20;;;;;;5045851;28;20072;-77
2022/10/12 06:45:15;;;;;;;5.65;2.35;;;16.80;81.20;;;;;;5046669;28;20108;-78
2022/10/12 06:47:41;;;;;;;3.47;1.92;;;16.80;81.10;;;;;;5047056;28;20049;-76
2022/10/12 06:50:07;;;;;;;3.92;1.95;;;16.90;81.00;;;;;;5046476;28;20544;-77
2022/10/12 06:52:34;;;;;;;3.97;2.08;;;16.90;81.00;;;;;;5045289;28;20107;-76
2022/10/12 06:54:59;;;;;;;4.40;2.38;;;16.90;80.80;;;;;;5045405;28;20510;-77
2022/10/12 06:57:25;;;;;;;3.97;2.22;;;16.90;80.80;;;;;;5046993;28;20029;-76
2022/10/12 06:59:50;;;;;;;3.38;2.00;;;16.90;80.70;;;;;;5045208;28;20078;-78
2022/10/12 07:02:16;;;;;;;3.90;2.08;;;17.00;80.80;;;;;;5045335;28;20525;-77
2022/10/12 07:04:42;;;;;;;4.43;2.20;;;17.00;80.70;;;;;;5045321;28;20041;-76
2022/10/12 07:07:07;;;;;;;3.63;1.90;;;17.00;80.70;;;;;;5046694;28;20029;-77
2022/10/12 07:09:33;;;;;;;3.15;1.90;;;17.00;80.50;;;;;;5044873;28;20207;-76
2022/10/12 07:11:58;;;;;;;4.07;2.17;;;17.00;80.50;;;;;;5046234;28;20051;-75
2022/10/12 07:14:24;;;;;;;4.70;2.20;;;17.10;80.40;;;;;;5046651;28;20131;-75
2022/10/12 07:16:50;;;;;;;3.95;2.10;;;17.10;80.40;;;;;;5046066;28;20025;-75
2022/10/12 07:19:15;;;;;;;3.78;2.00;;;17.10;80.30;;;;;;5045399;28;20506;-77
2022/10/12 07:21:41;;;;;;;4.53;2.22;;;17.10;80.30;;;;;;5045781;28;20078;-76
2022/10/12 07:24:07;;;;;;;3.67;1.90;;;17.00;80.40;;;;;;5044984;28;20070;-75
2022/10/12 07:26:33;;;;;;;4.72;2.20;;;17.00;80.40;;;;;;5044989;28;20028;-76
2022/10/12 07:29:01;;;;;;;4.75;2.30;;;17.00;80.50;;;;;;5046526;28;20021;-76
2022/10/12 07:31:26;;;;;;;3.40;2.00;;;17.00;80.60;;;;;;5044596;28;20059;-75
2022/10/12 07:33:53;;;;;;;3.90;2.10;;;17.00;80.70;;;;;;5046208;28;20064;-77
2022/10/12 07:36:18;;;;;;;4.93;2.47;;;17.00;80.60;;;;;;5046343;28;20079;-76
2022/10/12 07:38:44;;;;;;;4.80;2.10;;;17.00;80.60;;;;;;5044986;28;20573;-76
2022/10/12 07:41:10;;;;;;;4.45;2.35;;;17.10;80.30;;;;;;5043486;28;20139;-75
2022/10/12 07:43:36;;;;;;;4.53;2.08;;;17.10;80.10;;;;;;5046244;28;20514;-75
2022/10/12 07:46:03;;;;;;;3.47;1.95;;;17.20;80.00;;;;;;5044632;28;20032;-79
2022/10/12 07:48:28;;;;;;;4.00;2.25;;;17.20;79.70;;;;;;5044761;28;20467;-77
2022/10/12 07:50:54;;;;;;;4.18;2.35;;;17.30;79.60;;;;;;5044039;28;20136;-76
2022/10/12 07:53:20;;;;;;;4.47;2.40;;;17.30;79.40;;;;;;5046318;28;20052;-77
2022/10/12 07:55:45;;;;;;;4.68;2.00;;;17.40;79.50;;;;;;5045992;28;20025;-78
2022/10/12 07:58:11;;;;;;;3.20;1.92;;;17.40;79.20;;;;;;5042451;28;20043;-78
2022/10/12 08:00:37;;;;;;;4.35;2.08;;;17.50;79.00;;;;;;5044816;28;20351;-78
2022/10/12 08:03:02;;;;;;;3.67;2.08;;;17.50;78.90;;;;;;5045083;28;20465;-77
2022/10/12 08:05:28;;;;;;;4.78;2.25;;;17.60;78.80;;;;;;5045592;28;20029;-79
2022/10/12 08:07:54;;;;;;;3.65;1.92;;;17.60;78.70;;;;;;5044802;28;20036;-77
2022/10/12 08:10:20;;;;;;;3.53;2.10;;;17.60;78.60;;;;;;5044521;28;20033;-79
2022/10/12 08:12:46;;;;;;;4.40;2.08;;;17.70;78.50;;;;;;5045342;28;20055;-78
2022/10/12 08:15:12;;;;;;;4.15;2.25;;;17.70;78.40;;;;;;5044229;28;20060;-76
2022/10/12 08:17:38;;;;;;;4.20;2.00;;;17.70;78.30;;;;;;5044362;28;20097;-75
2022/10/12 08:20:05;;;;;;;3.80;2.08;;;17.80;78.20;;;;;;5044078;28;20487;-78
2022/10/12 08:22:30;;;;;;;2.72;1.83;;;17.80;78.00;;;;;;5045140;28;20558;-75
2022/10/12 08:24:56;;;;;;;3.40;1.98;;;17.90;77.90;;;;;;5045351;28;20035;-76
2022/10/12 08:27:21;;;;;;;3.92;2.17;;;17.90;77.70;;;;;;5044555;28;20112;-76
2022/10/12 08:29:47;;;;;;;4.82;2.30;;;18.00;77.70;;;;;;5044151;28;20064;-76
2022/10/12 08:32:13;;;;;;;4.10;1.90;;;18.00;77.50;;;;;;5044768;28;20032;-75
2022/10/12 08:34:38;;;;;;;3.47;2.05;;;18.10;77.40;;;;;;5043934;28;20055;-76
2022/10/12 08:37:04;;;;;;;4.03;2.15;;;18.10;77.30;;;;;;5045143;28;20044;-76
2022/10/12 08:39:29;;;;;;;3.72;2.03;;;18.10;77.30;;;;;;5045907;28;20077;-76
2022/10/12 08:42:31;;;;;;;3.75;2.13;;;18.10;77.30;;;;;;5044854;28;20052;-78
2022/10/12 08:45:09;;;;;;;4.00;2.17;;;18.00;77.30;;;;;;5013206;28;20040;-76
2022/10/12 08:47:45;;;;;;;4.50;2.10;;;18.10;77.50;;;;;;5045012;28;21030;-78
2022/10/12 08:50:25;;;;;;;4.63;2.30;;;18.10;77.50;;;;;;5044957;28;20025;-75
2022/10/12 08:53:04;;;;;;;3.58;1.92;;;18.00;77.40;;;;;;5045395;28;20494;-77
2022/10/12 08:55:35;;;;;;;4.20;2.20;;;18.10;77.40;;;;;;5047727;28;20025;-77
2022/10/12 08:58:01;;;;;;;3.85;2.08;;;18.10;77.30;;;;;;5049250;28;20044;-75
2022/10/12 09:00:30;;;;;;;3.75;2.05;;;18.10;77.30;;;;;;5048410;28;20083;-77
2022/10/12 09:03:07;;;;;;;3.22;1.83;;;18.10;77.20;;;;;;5049009;28;20021;-75
2022/10/12 09:05:40;;;;;;;4.40;2.15;;;18.10;77.30;;;;;;5048063;28;20106;-75
2022/10/12 09:08:19;;;;;;;3.92;2.00;;;18.10;77.50;;;;;;5047262;28;20123;-79
2022/10/12 09:10:52;;;;;;;4.47;2.10;;;18.10;77.60;;;;;;5047332;28;20028;-75
2022/10/12 09:13:45;;;;;;;3.97;2.05;;;18.00;77.90;;;;;;5048876;28;20025;-76
2022/10/12 09:16:18;;;;;;;2.83;1.83;;;18.00;78.00;;;;;;5048720;28;20904;-76
2022/10/12 09:18:50;;;;;;;4.20;2.20;;;17.90;78.10;;;;;;5049089;28;20025;-75
2022/10/12 09:21:18;;;;;;;4.60;2.10;;;17.90;78.30;;;;;;5048193;28;20043;-75
2022/10/12 09:23:44;;;;;;;3.35;1.90;;;18.00;78.20;;;;;;5048663;28;20032;-75
2022/10/12 09:26:16;;;;;;;3.42;2.00;;;18.00;78.10;;;;;;5048801;28;20396;-75
2022/10/12 09:28:44;;;;;;;;;;;18.10;78.00;;;;;;5048035;28;20067;-79
2022/10/12 09:31:09;;;;;;;3.83;1.92;;;18.10;77.90;;;;;;5046941;28;19909;-76
2022/10/12 09:33:44;;;;;;;3.50;2.00;;;18.10;77.60;;;;;;5047160;28;20029;-75
2022/10/12 09:36:14;;;;;;;4.32;2.13;;;18.20;77.50;;;;;;5048403;28;20431;-75
2022/10/12 09:38:39;;;;;;;3.97;2.10;;;18.20;77.40;;;;;;5048246;28;20100;-75
2022/10/12 09:41:05;;;;;;;4.28;2.03;;;18.20;77.40;;;;;;5046714;28;20093;-77
2022/10/12 09:43:31;;;;;;;4.38;2.25;;;18.30;77.40;;;;;;5046802;28;20490;-75
2022/10/12 09:46:04;;;;;;;4.03;2.08;;;18.30;77.50;;;;;;5046927;28;20052;-77
2022/10/12 09:48:30;;;;;;;3.75;2.10;;;18.20;77.40;;;;;;5046962;28;20023;-75
2022/10/12 09:51:01;;;;;;;4.38;2.30;;;18.20;77.60;;;;;;5047963;28;20028;-75
2022/10/12 09:53:34;;;;;;;4.05;2.10;;;18.20;77.80;;;;;;5048228;28;20028;-76
2022/10/12 09:56:22;;;;;;;4.00;2.00;;;18.10;78.00;;;;;;5047897;28;20135;-77
2022/10/12 09:59:01;;;;;;;3.83;1.95;;;18.00;78.20;;;;;;5048398;28;20029;-75
2022/10/12 10:02:08;;;;;;;3.85;1.90;;;18.00;78.50;;;;;;5047773;28;20071;-76
2022/10/12 10:04:33;;;;;;;4.40;2.20;;;17.90;78.60;;;;;;5046715;28;20036;-75
2022/10/12 10:07:22;;;;;;;3.63;2.17;;;17.90;78.70;;;;;;5047632;28;20029;-77
2022/10/12 10:10:07;;;;;;;3.75;2.10;;;17.90;78.90;;;;;;5046769;28;20074;-76
2022/10/12 10:12:39;;;;;;;4.25;1.90;;;17.90;79.00;;;;;;5047479;28;20048;-75
2022/10/12 10:15:19;;;;;;;3.92;2.13;;;17.90;79.00;;;;;;5047677;28;20033;-75
2022/10/12 10:17:52;;;;;;;4.00;1.90;;;17.80;78.80;;;;;;5047759;28;20544;-75
2022/10/12 10:21:04;;;;;;;4.40;2.15;;;18.00;78.60;;;;;;5046078;28;20045;-76
2022/10/12 10:23:34;;;;;;;4.38;2.10;;;18.00;78.50;;;;;;5047156;28;20128;-77
2022/10/12 10:26:08;;;;;;;4.22;2.10;;;18.00;78.50;;;;;;5046640;28;20044;-77
2022/10/12 10:28:36;;;;;;;3.53;2.00;;;18.00;78.30;;;;;;5045991;28;20025;-76
2022/10/12 10:31:05;;;;;;;2.90;1.90;;;18.10;78.20;;;;;;5045781;28;20486;-78
2022/10/12 10:33:33;;;;;;;4.47;2.13;;;18.10;78.10;;;;;;5046478;28;20116;-76
2022/10/12 10:36:22;;;;;;;3.67;1.90;;;18.20;78.10;;;;;;5046236;28;20033;-79
2022/10/12 10:39:07;;;;;;;2.95;1.70;;;18.20;78.00;;;;;;5046189;28;20032;-77
2022/10/12 10:41:37;;;;;;;3.88;1.80;;;18.10;77.90;;;;;;5047154;28;20028;-77
2022/10/12 10:44:04;;;;;;;4.57;2.15;;;18.20;78.00;;;;;;5047262;28;20037;-77
2022/10/12 10:46:33;;;;;;;3.85;1.98;;;18.20;78.00;;;;;;5045815;28;20021;-76
2022/10/12 10:49:05;;;;;;;3.78;1.90;;;18.20;78.00;;;;;;5045779;28;20111;-76
2022/10/12 10:51:39;;;;;;;3.75;1.85;;;18.20;77.90;;;;;;5046535;28;20020;-76
2022/10/12 10:54:22;;;;;;;3.80;1.90;;;18.20;78.10;;;;;;5047127;28;20112;-76
2022/10/12 10:57:12;;;;;;;4.28;2.13;;;18.10;78.10;;;;;;5047222;28;20070;-77
2022/10/12 10:59:48;;;;;;;3.95;2.00;;;18.10;78.20;;;;;;5046740;28;20047;-76
2022/10/12 11:02:32;;;;;;;4.35;1.80;;;18.10;78.30;;;;;;5046807;28;20037;-77
2022/10/12 11:05:10;;;;;;;2.95;1.88;;;18.10;78.40;;;;;;5046629;28;20067;-75
2022/10/12 11:07:44;;;;;;;3.35;1.80;;;18.10;78.50;;;;;;5045146;28;20035;-75
2022/10/12 11:10:20;;;;;;;4.20;2.10;;;18.00;78.40;;;;;;5046653;28;20052;-75
2022/10/12 11:12:51;;;;;;;3.00;1.80;;;18.00;78.50;;;;;;5046699;28;20087;-76
2022/10/12 11:15:33;;;;;;;3.22;1.90;;;18.10;78.60;;;;;;5046383;28;20064;-75
2022/10/12 11:18:40;;;;;;;4.03;1.88;;;18.00;78.70;;;;;;5045338;28;20028;-76
2022/10/12 11:21:36;;;;;;;4.47;2.10;;;18.00;78.70;;;;;;5044333;28;20041;-76
2022/10/12 11:24:19;;;;;;;2.97;1.60;;;17.90;78.80;;;;;;5034170;28;20032;-75
2022/10/12 11:27:13;;;;;;;3.80;1.92;;;18.00;78.90;;;;;;5045282;28;20509;-76
2022/10/12 11:29:40;;;;;;;3.40;1.85;;;17.90;78.90;;;;;;5046554;28;20071;-79
2022/10/12 11:32:21;;;;;;;2.88;1.63;;;18.00;78.90;;;;;;5045925;28;20040;-75
2022/10/12 11:34:51;;;;;;;3.90;1.85;;;18.00;78.80;;;;;;5046192;28;20528;-77
2022/10/12 11:37:21;;;;;;;3.78;1.80;;;18.00;78.80;;;;;;5046395;28;20033;-78
2022/10/12 11:39:50;;;;;;;3.33;1.65;;;18.00;78.70;;;;;;5044829;28;20107;-76
2022/10/12 11:42:27;;;;;;;3.83;1.80;;;18.00;78.80;;;;;;5044466;28;20200;-76
2022/10/12 11:44:53;;;;;;;3.67;1.90;;;17.90;78.90;;;;;;5044905;28;20126;-76
2022/10/12 11:47:47;;;;;;;2.60;1.52;;;17.90;78.90;;;;;;5046071;28;20506;-76
2022/10/12 11:50:34;;;;;;;4.05;1.80;;;17.90;79.00;;;;;;5045653;28;20029;-75
2022/10/12 11:53:02;;;;;;;2.63;1.60;;;17.90;79.10;;;;;;5044810;28;20016;-76
2022/10/12 11:55:43;;;;;;;4.03;1.83;;;17.90;79.20;;;;;;5045893;28;20078;-76
2022/10/12 11:58:25;;;;;;;3.13;1.73;;;17.90;79.10;;;;;;5046004;28;20025;-75
2022/10/12 12:01:23;;;;;;;3.03;1.60;;;17.90;79.00;;;;;;5045723;28;20033;-77
2022/10/12 12:04:10;;;;;;;3.47;1.80;;;17.90;78.90;;;;;;5028021;28;20083;-76
2022/10/12 12:06:49;;;;;;;3.22;1.70;;;17.90;78.90;;;;;;5044630;28;20049;-76
2022/10/12 12:09:38;;;;;;;4.00;1.90;;;17.90;78.90;;;;;;5043776;28;20061;-77
2022/10/12 12:12:24;;;;;;;3.33;1.80;;;17.90;78.90;;;;;;5045243;28;20029;-77
2022/10/12 12:14:52;;;;;;;3.65;1.90;;;17.90;78.90;;;;;;5045952;28;20029;-76
2022/10/12 12:17:18;;;;;;;3.30;1.85;;;17.90;78.90;;;;;;5044014;28;20043;-77
2022/10/12 12:19:45;;;;;;;3.35;1.60;;;18.00;79.00;;;;;;5044459;28;20029;-77
2022/10/12 12:22:15;;;;;;;3.42;1.90;;;18.00;79.00;;;;;;5045250;28;20509;-75
2022/10/12 12:24:55;;;;;;;3.67;1.83;;;18.00;79.00;;;;;;5045746;28;20053;-76
2022/10/12 12:27:31;;;;;;;3.55;1.60;;;18.00;79.00;;;;;;5044003;28;20516;-75
2022/10/12 12:30:04;;;;;;;2.92;1.63;;;18.00;78.80;;;;;;5044214;28;20090;-78
2022/10/12 12:32:43;;;;;;;3.22;1.63;;;18.00;78.70;;;;;;5043914;28;20130;-77
2022/10/12 12:35:18;;;;;;;3.28;1.63;;;18.10;78.70;;;;;;5045501;28;20131;-76
2022/10/12 12:37:45;;;;;;;3.92;1.70;;;18.00;78.60;;;;;;5044210;28;20087;-75
2022/10/12 12:40:22;;;;;;;3.00;1.55;;;18.10;78.70;;;;;;5043833;28;20126;-79
2022/10/12 12:42:48;;;;;;;2.92;1.58;;;18.00;78.70;;;;;;5044406;28;20029;-76
2022/10/12 12:45:59;;;;;;;2.67;1.52;;;18.00;78.90;;;;;;5045200;28;20102;-76
2022/10/12 12:48:45;;;;;;;3.30;1.60;;;18.00;79.00;;;;;;5026006;28;20139;-75
2022/10/12 12:51:14;;;;;;;2.65;1.45;;;18.00;79.10;;;;;;5043370;28;20106;-75
2022/10/12 12:53:48;;;;;;;2.53;1.63;;;18.00;79.20;;;;;;5045380;28;20025;-77
2022/10/12 12:56:18;;;;;;;2.90;1.50;;;17.90;79.20;;;;;;5045204;28;20099;-76
2022/10/12 12:59:00;;;;;;;3.55;1.52;;;18.00;79.20;;;;;;5045122;28;20048;-76
2022/10/12 13:01:46;;;;;;;3.40;1.60;;;17.90;79.30;;;;;;5044832;28;20031;-78
2022/10/12 13:04:27;;;;;;;3.25;1.60;;;17.90;79.40;;;;;;5043641;28;20033;-77
2022/10/12 13:07:11;;;;;;;3.03;1.60;;;17.90;79.50;;;;;;5043676;28;20033;-75